Ackworth, Iowa
Current Conditions -  °F | °C
As of 4:15 PM on Sunday 23 Nov 2014 (Local Time) from KDSM Reporting Station
Drizzle Drizzle  
Wind Chill:   Ceiling: 1000
Heat Index:   Visibility: 2.5mi
Dew Point:   Wind: 15mph
Humidity: 90%   Direction: 330°NNW
Pressure: 29.37"   Gusts: NA
Location:  41.37°N, 93.47°W
Report Text: KDSM 232215Z 33013KT 2 1/2SM -DZ BR BKN010 OVC020 08/07 A2937 RMK AO2 DZB04 CIG 007V012 P0000 T00830067
Loading
Personal Weather Stations






























Interactive Weather Map New forecast layout! Learn more

10-Day Weather Forecast

Advertisements
Track Severe Weather on mobile